createdAt,value
2018-05-13T00:01:26.713Z,29.93
2018-05-13T00:03:56.019Z,30.10
2018-05-13T00:06:25.019Z,32.07
2018-05-13T00:08:52.783Z,32.47
2018-05-13T00:11:20.261Z,39.13
2018-05-13T00:13:47.792Z,31.33
2018-05-13T00:16:15.459Z,36.37
2018-05-13T00:18:44.447Z,39.80
2018-05-13T00:21:12.127Z,29.83
2018-05-13T00:23:39.590Z,34.60
2018-05-13T00:26:07.076Z,31.50
2018-05-13T00:28:34.535Z,39.13
2018-05-13T00:31:02.052Z,38.83
2018-05-13T00:33:31.034Z,35.07
2018-05-13T00:35:58.509Z,34.40
2018-05-13T00:38:26.271Z,33.93
2018-05-13T00:40:55.251Z,40.00
2018-05-13T00:43:22.724Z,36.73
2018-05-13T00:45:51.694Z,40.40
2018-05-13T00:48:19.155Z,37.47
2018-05-13T00:50:46.637Z,34.87
2018-05-13T00:53:15.606Z,37.03
2018-05-13T00:55:43.083Z,48.47
2018-05-13T00:58:12.086Z,42.00
2018-05-13T01:00:41.078Z,38.87
2018-05-13T01:03:10.055Z,41.20
2018-05-13T01:05:37.531Z,38.10
2018-05-13T01:08:05.098Z,43.83
2018-05-13T01:10:33.331Z,39.30
2018-05-13T01:13:01.138Z,46.93
2018-05-13T01:15:28.814Z,44.33
2018-05-13T01:17:56.370Z,43.83
2018-05-13T01:20:23.843Z,45.87
2018-05-13T01:22:51.704Z,47.93
2018-05-13T01:25:19.926Z,56.43
2018-05-13T01:27:47.526Z,44.23
2018-05-13T01:30:15.767Z,48.03
2018-05-13T01:32:43.232Z,47.50
2018-05-13T01:35:10.706Z,45.80
2018-05-13T01:37:38.378Z,46.60
2018-05-13T01:40:05.923Z,46.30
2018-05-13T01:42:34.906Z,47.27
2018-05-13T01:45:02.603Z,46.77
2018-05-13T01:47:30.094Z,54.33
2018-05-13T01:49:57.602Z,47.43
2018-05-13T01:52:25.929Z,42.83
2018-05-13T01:54:53.446Z,49.53
2018-05-13T01:57:22.415Z,55.87
2018-05-13T01:59:49.894Z,40.00
2018-05-13T02:02:18.876Z,46.77
2018-05-13T02:04:46.347Z,48.20
2018-05-13T02:07:15.646Z,44.20
2018-05-13T02:09:43.116Z,48.03
2018-05-13T02:12:10.583Z,41.87
2018-05-13T02:14:38.055Z,49.13
2018-05-13T02:17:05.636Z,45.80
2018-05-13T02:19:33.225Z,48.17
2018-05-13T02:22:00.644Z,46.57
2018-05-13T02:24:28.110Z,41.33
2018-05-13T02:26:55.599Z,44.60
2018-05-13T02:29:23.082Z,48.40
2018-05-13T02:31:50.547Z,46.73
2018-05-13T02:34:18.905Z,49.40
2018-05-13T02:36:46.383Z,47.80
2018-05-13T02:39:13.866Z,47.83
2018-05-13T02:41:41.337Z,49.20
2018-05-13T02:44:08.806Z,47.20
2018-05-13T02:46:36.444Z,48.00
2018-05-13T02:49:03.915Z,50.47
2018-05-13T02:51:31.429Z,48.67
2018-05-13T02:54:00.403Z,47.73
2018-05-13T02:56:27.878Z,52.90
2018-05-13T02:58:56.120Z,53.77
2018-05-13T03:01:23.598Z,48.80
2018-05-13T03:03:51.078Z,51.30
2018-05-13T03:06:18.556Z,49.83
2018-05-13T03:08:46.031Z,50.97
2018-05-13T03:11:13.514Z,52.80
2018-05-13T03:13:41.011Z,52.80
2018-05-13T03:16:10.002Z,60.90
2018-05-13T03:18:38.982Z,50.67
2018-05-13T03:21:06.762Z,50.17
2018-05-13T03:23:35.754Z,51.80
2018-05-13T03:26:03.991Z,57.50
2018-05-13T03:28:31.599Z,53.47
2018-05-13T03:31:00.591Z,53.30
2018-05-13T03:33:29.590Z,58.23
2018-05-13T03:35:57.378Z,51.40
2018-05-13T03:38:24.848Z,48.97
2018-05-13T03:40:52.518Z,52.07
2018-05-13T03:43:20.067Z,47.17
2018-05-13T03:45:47.540Z,52.93
2018-05-13T03:48:15.299Z,55.93
2018-05-13T03:50:42.762Z,52.73
2018-05-13T03:53:10.313Z,49.40
2018-05-13T03:55:37.966Z,50.90
2018-05-13T03:58:05.713Z,58.80
2018-05-13T04:00:33.249Z,49.93
2018-05-13T04:03:00.731Z,53.63
2018-05-13T04:05:29.047Z,53.90
2018-05-13T04:11:17.929Z,56.53
2018-05-13T04:13:57.282Z,54.77
2018-05-13T04:16:24.792Z,47.97
2018-05-13T04:18:52.494Z,57.53
2018-05-13T04:21:19.995Z,58.03
2018-05-13T04:23:47.492Z,51.43
2018-05-13T04:26:15.014Z,54.00
2018-05-13T04:28:42.503Z,53.57
2018-05-13T04:31:09.995Z,52.10
2018-05-13T04:33:37.519Z,54.67
2018-05-13T04:36:05.797Z,51.37
2018-05-13T04:38:33.635Z,58.13
2018-05-13T04:41:01.151Z,52.80
2018-05-13T04:43:28.789Z,54.57
2018-05-13T04:45:56.289Z,50.27
2018-05-13T04:48:23.847Z,54.13
2018-05-13T04:50:51.398Z,52.97
2018-05-13T04:53:18.895Z,54.03
2018-05-13T04:55:46.414Z,52.00
2018-05-13T04:58:13.993Z,54.93
2018-05-13T05:00:41.551Z,51.50
2018-05-13T05:03:09.112Z,53.57
2018-05-13T05:05:36.629Z,54.30
2018-05-13T05:08:04.326Z,52.63
2018-05-13T05:10:32.060Z,48.00
2018-05-13T05:12:59.578Z,53.70
2018-05-13T05:15:27.240Z,52.10
2018-05-13T05:17:54.795Z,53.80
2018-05-13T05:20:22.322Z,50.07
2018-05-13T05:22:50.032Z,48.00
2018-05-13T05:25:18.315Z,46.10
2018-05-13T05:27:45.942Z,44.47
2018-05-13T05:30:13.544Z,52.67
2018-05-13T05:32:41.053Z,51.23
2018-05-13T05:35:08.592Z,52.57
2018-05-13T05:37:36.117Z,55.80
2018-05-13T05:40:03.623Z,45.90
2018-05-13T05:42:31.147Z,50.47
2018-05-13T05:44:58.929Z,48.07
2018-05-13T05:47:26.417Z,46.17
2018-05-13T05:49:53.957Z,45.47
2018-05-13T05:52:21.581Z,46.23
2018-05-13T05:54:49.377Z,48.93
2018-05-13T05:57:16.845Z,48.63
2018-05-13T05:59:44.537Z,49.23
2018-05-13T06:02:12.070Z,47.13
2018-05-13T06:04:39.568Z,44.70
2018-05-13T06:07:07.049Z,56.03
2018-05-13T06:09:34.522Z,55.47
2018-05-13T06:12:02.837Z,48.53
2018-05-13T06:14:30.299Z,46.70
2018-05-13T06:16:57.827Z,49.60
2018-05-13T06:19:25.440Z,47.70
2018-05-13T06:21:52.933Z,43.93
2018-05-13T06:24:20.594Z,48.20
2018-05-13T06:26:48.144Z,46.90
2018-05-13T06:29:15.606Z,44.07
2018-05-13T06:31:43.077Z,47.90
2018-05-13T06:34:10.813Z,46.90
2018-05-13T06:36:38.499Z,42.50
2018-05-13T06:39:06.006Z,39.47
2018-05-13T06:41:33.470Z,38.17
2018-05-13T06:44:00.958Z,37.83
2018-05-13T06:46:28.735Z,41.20
2018-05-13T06:48:56.228Z,33.07
2018-05-13T06:51:23.784Z,27.50
2018-05-13T06:53:51.327Z,25.50
2018-05-13T06:56:18.789Z,27.57
2018-05-13T06:58:46.253Z,32.73
2018-05-13T07:01:13.769Z,28.33
2018-05-13T07:03:41.235Z,19.87
2018-05-13T07:06:09.003Z,23.47
2018-05-13T07:08:36.466Z,22.57
2018-05-13T07:11:03.947Z,21.13
2018-05-13T07:13:31.683Z,24.37
2018-05-13T07:15:59.144Z,17.70
2018-05-13T07:18:26.923Z,18.50
2018-05-13T07:20:54.393Z,23.57
2018-05-13T07:23:22.130Z,21.97
2018-05-13T07:25:49.897Z,20.00
2018-05-13T07:28:17.539Z,21.33
2018-05-13T07:30:45.119Z,27.37
2018-05-13T07:33:12.900Z,21.33
2018-05-13T07:35:40.363Z,20.70
2018-05-13T07:38:08.643Z,31.10
2018-05-13T07:40:36.174Z,22.97
2018-05-13T07:43:03.675Z,32.93
2018-05-13T07:45:31.364Z,23.73
2018-05-13T07:47:58.836Z,19.47
2018-05-13T07:50:26.327Z,23.10
2018-05-13T07:52:53.815Z,18.83
2018-05-13T07:55:21.477Z,25.43
2018-05-13T07:57:49.029Z,29.40
2018-05-13T08:00:16.622Z,30.70
2018-05-13T08:02:44.147Z,26.43
2018-05-13T08:05:12.376Z,24.53
2018-05-13T08:07:39.846Z,26.90
2018-05-13T08:10:07.513Z,38.80
2018-05-13T08:12:34.986Z,21.43
2018-05-13T08:15:02.452Z,25.53
2018-05-13T08:17:30.111Z,20.17
2018-05-13T08:19:57.585Z,23.77
2018-05-13T08:22:25.052Z,23.33
2018-05-13T08:24:52.526Z,30.67
2018-05-13T08:27:19.990Z,26.50
2018-05-13T08:29:47.486Z,19.63
2018-05-13T08:32:14.963Z,26.07
2018-05-13T08:34:42.716Z,23.50
2018-05-13T08:37:10.177Z,24.57
2018-05-13T08:39:37.934Z,22.13
2018-05-13T08:42:05.409Z,24.87
2018-05-13T08:44:33.166Z,21.77
2018-05-13T08:47:00.923Z,25.33
2018-05-13T08:49:28.695Z,34.17
2018-05-13T08:51:56.253Z,23.00
2018-05-13T08:54:23.729Z,25.63
2018-05-13T08:56:51.955Z,31.23
2018-05-13T08:59:19.447Z,24.87
2018-05-13T09:01:47.130Z,29.00
2018-05-13T09:04:14.651Z,32.43
2018-05-13T09:06:42.436Z,26.20
2018-05-13T09:09:10.122Z,27.13
2018-05-13T09:11:37.581Z,35.17
2018-05-13T09:14:05.155Z,36.40
2018-05-13T09:16:32.591Z,35.67
2018-05-13T09:19:00.254Z,28.80
2018-05-13T09:21:27.791Z,29.07
2018-05-13T09:23:55.255Z,32.90
2018-05-13T09:26:23.018Z,39.67
2018-05-13T09:28:50.482Z,36.03
2018-05-13T09:31:17.948Z,32.97
2018-05-13T09:33:45.745Z,43.53
2018-05-13T09:36:13.212Z,43.77
2018-05-13T09:38:40.922Z,50.90
2018-05-13T09:41:08.697Z,55.17
2018-05-13T09:43:36.158Z,48.27
2018-05-13T09:46:03.624Z,48.80
2018-05-13T09:48:31.304Z,53.93
2018-05-13T09:50:58.834Z,49.47
2018-05-13T09:53:26.429Z,63.93
2018-05-13T09:55:54.003Z,62.97
2018-05-13T09:58:21.462Z,51.20
2018-05-13T10:00:48.934Z,57.13
2018-05-13T10:03:16.422Z,54.23
2018-05-13T10:05:43.897Z,54.53
2018-05-13T10:08:12.148Z,58.10
2018-05-13T10:10:39.723Z,57.53
2018-05-13T10:13:07.190Z,58.43
2018-05-13T10:15:34.946Z,57.13
2018-05-13T10:18:02.707Z,56.70
2018-05-13T10:20:30.169Z,60.10
2018-05-13T10:22:58.077Z,55.40
2018-05-13T10:25:25.659Z,56.57
2018-05-13T10:27:53.126Z,59.07
2018-05-13T10:30:20.587Z,55.53
2018-05-13T10:32:48.062Z,58.47
2018-05-13T10:35:15.531Z,57.90
2018-05-13T10:37:43.303Z,53.67
2018-05-13T10:40:10.821Z,54.50
2018-05-13T10:42:38.434Z,62.37
2018-05-13T10:45:05.903Z,50.90
2018-05-13T10:47:33.377Z,51.93
2018-05-13T10:50:00.842Z,58.23
2018-05-13T10:52:28.305Z,54.27
2018-05-13T10:54:55.812Z,49.77
2018-05-13T10:57:23.533Z,55.80
2018-05-13T10:59:50.993Z,73.37
2018-05-13T11:02:18.486Z,59.07
2018-05-13T11:04:46.199Z,51.30
2018-05-13T11:07:13.680Z,50.90
2018-05-13T11:09:41.170Z,53.80
2018-05-13T11:12:08.630Z,57.57
2018-05-13T11:14:36.147Z,61.97
2018-05-13T11:17:03.646Z,62.13
2018-05-13T11:19:31.267Z,61.37
2018-05-13T11:21:58.727Z,58.07
2018-05-13T11:24:26.199Z,56.93
2018-05-13T11:26:53.704Z,52.60
2018-05-13T11:29:21.253Z,64.83
2018-05-13T11:31:48.791Z,63.43
2018-05-13T11:34:16.335Z,51.90
2018-05-13T11:36:43.791Z,54.00
2018-05-13T11:39:11.418Z,62.67
2018-05-13T11:41:39.664Z,60.37
2018-05-13T11:44:07.215Z,64.47
2018-05-13T11:46:34.886Z,63.93
2018-05-13T11:49:02.530Z,70.83
2018-05-13T11:51:30.092Z,84.07
2018-05-13T11:53:57.603Z,78.53
2018-05-13T11:56:25.182Z,80.33
2018-05-13T11:58:52.619Z,73.83
2018-05-13T12:01:20.868Z,78.27
2018-05-13T12:03:48.399Z,75.70
2018-05-13T12:06:16.039Z,72.63
2018-05-13T12:08:43.541Z,74.23
2018-05-13T12:11:12.546Z,71.97
2018-05-13T12:13:40.027Z,75.37
2018-05-13T12:16:07.490Z,71.77
2018-05-13T12:18:34.966Z,76.50
2018-05-13T12:21:02.441Z,71.77
2018-05-13T12:23:29.955Z,80.47
2018-05-13T12:25:58.193Z,85.13
2018-05-13T12:28:25.652Z,80.53
2018-05-13T12:30:53.126Z,75.57
2018-05-13T12:33:22.121Z,80.23
2018-05-13T12:35:49.595Z,73.80
2018-05-13T12:38:17.379Z,71.73
2018-05-13T12:40:44.856Z,78.20
2018-05-13T12:43:12.566Z,76.23
2018-05-13T12:45:41.570Z,84.17
2018-05-13T12:48:09.210Z,74.83
2018-05-13T12:50:36.702Z,81.53
2018-05-13T12:53:04.161Z,74.90
2018-05-13T12:55:31.703Z,73.37
2018-05-13T12:57:59.467Z,70.93
2018-05-13T13:00:28.766Z,73.20
2018-05-13T13:02:57.037Z,71.40
2018-05-13T13:05:24.598Z,62.83
2018-05-13T13:07:52.994Z,69.20
2018-05-13T13:10:20.466Z,74.00
2018-05-13T13:12:48.018Z,118.60
2018-05-13T13:15:16.362Z,80.53
2018-05-13T13:17:44.057Z,104.37
2018-05-13T13:20:12.365Z,156.33
2018-05-13T13:22:39.870Z,130.87
2018-05-13T13:25:07.417Z,91.50
2018-05-13T13:27:34.946Z,99.47
2018-05-13T13:30:02.466Z,100.00
2018-05-13T13:32:30.045Z,104.37
2018-05-13T13:34:57.523Z,102.20
2018-05-13T13:37:25.039Z,95.43
2018-05-13T13:39:52.578Z,93.47
2018-05-13T13:42:20.078Z,89.60
2018-05-13T13:44:47.562Z,95.80
2018-05-13T13:47:15.093Z,83.37
2018-05-13T13:49:42.604Z,87.13
2018-05-13T13:52:10.103Z,88.07
2018-05-13T13:54:37.619Z,81.20
2018-05-13T13:57:05.090Z,83.20
2018-05-13T13:59:32.572Z,76.90
2018-05-13T14:02:00.097Z,79.90
2018-05-13T14:04:27.638Z,73.43
2018-05-13T14:06:55.367Z,83.47
2018-05-13T14:09:23.631Z,87.93
2018-05-13T14:11:51.194Z,85.70
2018-05-13T14:14:18.655Z,75.17
2018-05-13T14:16:47.627Z,77.70
2018-05-13T14:19:15.098Z,75.40
2018-05-13T14:21:42.819Z,76.23
2018-05-13T14:24:10.327Z,81.40
2018-05-13T14:26:37.828Z,75.13
2018-05-13T14:29:05.553Z,76.50
2018-05-13T14:31:33.859Z,85.53
2018-05-13T14:34:01.349Z,76.67
2018-05-13T14:36:28.889Z,89.30
2018-05-13T14:38:56.675Z,79.47
2018-05-13T14:41:24.210Z,72.83
2018-05-13T14:43:51.744Z,83.00
2018-05-13T14:46:19.246Z,82.03
2018-05-13T14:48:46.718Z,78.73
2018-05-13T14:51:14.246Z,81.93
2018-05-13T14:53:41.794Z,77.90
2018-05-13T14:56:10.067Z,86.27
2018-05-13T14:58:37.587Z,87.00
2018-05-13T15:01:05.079Z,90.63
2018-05-13T15:03:33.382Z,83.97
2018-05-13T15:06:01.155Z,94.37
2018-05-13T15:08:28.656Z,88.57
2018-05-13T15:10:56.383Z,78.47
2018-05-13T15:13:23.857Z,91.37
2018-05-13T15:15:51.339Z,85.30
2018-05-13T15:18:18.823Z,86.80
2018-05-13T15:20:47.127Z,97.40
2018-05-13T15:23:14.676Z,98.50
2018-05-13T15:25:42.944Z,82.73
2018-05-13T15:28:10.588Z,93.60
2018-05-13T15:30:38.070Z,84.60
2018-05-13T15:33:05.603Z,84.60
2018-05-13T15:35:33.407Z,84.93
2018-05-13T15:38:00.895Z,82.27
2018-05-13T15:40:28.418Z,88.03
2018-05-13T15:42:56.078Z,81.67
2018-05-13T15:45:23.430Z,74.53
2018-05-13T15:47:51.570Z,72.40
2018-05-13T15:50:19.060Z,74.37
2018-05-13T15:52:46.561Z,78.57
2018-05-13T15:55:14.084Z,80.40
2018-05-13T15:57:41.685Z,74.80
2018-05-13T16:00:09.220Z,70.60
2018-05-13T16:02:36.712Z,73.43
2018-05-13T16:05:04.170Z,79.40
2018-05-13T16:07:31.730Z,76.27
2018-05-13T16:09:59.222Z,69.87
2018-05-13T16:12:26.682Z,73.20
2018-05-13T16:14:54.160Z,73.47
2018-05-13T16:17:21.653Z,73.27
2018-05-13T16:19:49.130Z,67.63
2018-05-13T16:22:16.601Z,60.77
2018-05-13T16:24:44.071Z,70.23
2018-05-13T16:27:12.306Z,69.20
2018-05-13T16:29:39.939Z,67.17
2018-05-13T16:32:07.382Z,64.17
2018-05-13T16:34:35.047Z,77.70
2018-05-13T16:37:02.542Z,67.13
2018-05-13T16:39:30.028Z,67.27
2018-05-13T16:41:57.521Z,72.30
2018-05-13T16:44:25.222Z,62.07
2018-05-13T16:46:52.692Z,66.63
2018-05-13T16:49:20.185Z,69.90
2018-05-13T16:51:49.202Z,66.50
2018-05-13T16:54:16.681Z,75.67
2018-05-13T16:56:44.396Z,70.53
2018-05-13T16:59:12.206Z,63.47
2018-05-13T17:01:39.964Z,67.17
2018-05-13T17:04:07.634Z,79.20
2018-05-13T17:06:35.115Z,68.73
2018-05-13T17:09:02.582Z,59.73
2018-05-13T17:11:30.064Z,58.20
2018-05-13T17:13:57.541Z,62.30
2018-05-13T17:16:25.028Z,68.77
2018-05-13T17:18:52.612Z,62.67
2018-05-13T17:21:20.092Z,65.43
2018-05-13T17:23:47.562Z,68.13
2018-05-13T17:26:15.038Z,59.77
2018-05-13T17:28:42.503Z,64.00
2018-05-13T17:31:10.000Z,63.83
2018-05-13T17:33:37.498Z,67.43
2018-05-13T17:36:04.970Z,60.40
2018-05-13T17:38:32.451Z,70.43
2018-05-13T17:41:00.183Z,73.57
2018-05-13T17:43:27.697Z,72.60
2018-05-13T17:45:55.744Z,66.00
2018-05-13T17:48:23.222Z,65.90
2018-05-13T17:50:50.698Z,69.17
2018-05-13T17:53:18.159Z,75.27
2018-05-13T17:55:45.774Z,65.63
2018-05-13T17:58:13.262Z,72.07
2018-05-13T18:00:40.763Z,71.27
2018-05-13T18:03:09.777Z,77.57
2018-05-13T18:05:37.243Z,67.10
2018-05-13T18:08:04.706Z,63.33
2018-05-13T18:10:32.191Z,66.17
2018-05-13T18:12:59.829Z,67.73
2018-05-13T18:15:27.334Z,68.67
2018-05-13T18:17:54.831Z,69.33
2018-05-13T18:20:22.286Z,68.10
2018-05-13T18:22:50.191Z,72.77
2018-05-13T18:25:17.672Z,59.97
2018-05-13T18:27:45.308Z,62.30
2018-05-13T18:30:12.790Z,66.87
2018-05-13T18:32:40.394Z,64.67
2018-05-13T18:35:07.939Z,63.40
2018-05-13T18:37:35.401Z,62.40
2018-05-13T18:40:04.383Z,60.43
2018-05-13T18:42:31.852Z,68.00
2018-05-13T18:44:59.334Z,65.97
2018-05-13T18:47:26.821Z,65.83
2018-05-13T18:49:54.535Z,67.03
2018-05-13T18:52:23.526Z,70.80
2018-05-13T18:54:52.556Z,61.50
2018-05-13T18:57:20.286Z,58.30
2018-05-13T18:59:49.268Z,57.90
2018-05-13T19:02:16.739Z,58.97
2018-05-13T19:04:45.036Z,54.23
2018-05-13T19:07:12.587Z,62.23
2018-05-13T19:09:40.847Z,59.63
2018-05-13T19:12:09.282Z,65.03
2018-05-13T19:14:36.805Z,63.07
2018-05-13T19:17:04.559Z,73.57
2018-05-13T19:19:32.059Z,67.80
2018-05-13T19:21:59.590Z,71.80
2018-05-13T19:24:27.839Z,75.27
2018-05-13T19:26:55.325Z,79.23
2018-05-13T19:29:23.090Z,65.90
2018-05-13T19:31:50.555Z,70.40
2018-05-13T19:34:18.050Z,77.13
2018-05-13T19:36:45.621Z,66.73
2018-05-13T19:39:13.060Z,75.43
2018-05-13T19:41:40.674Z,68.23
2018-05-13T19:44:09.010Z,73.50
2018-05-13T19:46:36.510Z,72.73
2018-05-13T19:49:04.291Z,74.20
2018-05-13T19:51:31.772Z,73.73
2018-05-13T19:53:59.251Z,71.43
2018-05-13T19:56:26.836Z,69.53
2018-05-13T19:58:54.321Z,76.17
2018-05-13T20:01:21.876Z,72.23
2018-05-13T20:03:49.403Z,68.97
2018-05-13T20:06:17.050Z,74.00
2018-05-13T20:08:44.515Z,80.23
2018-05-13T20:11:12.008Z,76.43
2018-05-13T20:13:39.558Z,69.50
2018-05-13T20:16:07.043Z,69.43
2018-05-13T20:18:34.504Z,79.17
2018-05-13T20:21:02.781Z,69.63
2018-05-13T20:23:30.474Z,69.53
2018-05-13T20:25:57.944Z,79.80
2018-05-13T20:28:25.446Z,77.07
2018-05-13T20:30:53.237Z,77.70
2018-05-13T20:33:20.713Z,68.30
2018-05-13T20:35:48.212Z,85.17
2018-05-13T20:38:15.817Z,80.50
2018-05-13T20:40:43.297Z,77.90
2018-05-13T20:43:10.820Z,74.63
2018-05-13T20:45:38.499Z,78.33
2018-05-13T20:48:05.997Z,97.57
2018-05-13T20:50:33.508Z,90.80
2018-05-13T20:53:00.994Z,89.37
2018-05-13T20:55:28.499Z,88.23
2018-05-13T20:57:56.191Z,82.20
2018-05-13T21:00:23.626Z,79.77
2018-05-13T21:02:51.102Z,89.13
2018-05-13T21:05:18.657Z,75.67
2018-05-13T21:07:46.469Z,87.33
2018-05-13T21:10:13.935Z,87.50
2018-05-13T21:12:41.422Z,91.17
2018-05-13T21:15:09.027Z,81.80
2018-05-13T21:17:36.505Z,93.63
2018-05-13T21:20:03.973Z,79.10
2018-05-13T21:22:31.454Z,82.63
2018-05-13T21:24:58.930Z,93.73
2018-05-13T21:27:26.407Z,93.70
2018-05-13T21:29:54.645Z,93.03
2018-05-13T21:32:22.429Z,99.43
2018-05-13T21:34:49.906Z,90.03
2018-05-13T21:37:17.394Z,113.13
2018-05-13T21:39:44.895Z,101.33
2018-05-13T21:42:12.374Z,105.70
2018-05-13T21:44:40.801Z,113.03
2018-05-13T21:47:08.373Z,108.50
2018-05-13T21:49:35.875Z,110.20
2018-05-13T21:52:03.540Z,106.67
2018-05-13T21:54:31.097Z,118.20
2018-05-13T21:56:58.551Z,138.90
2018-05-13T21:59:26.049Z,121.57
2018-05-13T22:01:53.568Z,123.83
2018-05-13T22:04:21.051Z,146.20
2018-05-13T22:06:49.374Z,130.67
2018-05-13T22:09:16.855Z,127.67
2018-05-13T22:11:44.324Z,132.13
2018-05-13T22:14:12.604Z,116.83
2018-05-13T22:16:40.114Z,118.23
2018-05-13T22:19:07.610Z,114.23
2018-05-13T22:21:35.076Z,138.03
2018-05-13T22:24:02.744Z,130.03
2018-05-13T22:26:30.264Z,125.67
2018-05-13T22:28:57.845Z,133.23
2018-05-13T22:31:25.336Z,125.57
2018-05-13T22:33:52.908Z,123.40
2018-05-13T22:36:20.385Z,140.87
2018-05-13T22:38:47.898Z,135.33
2018-05-13T22:41:16.135Z,119.50
2018-05-13T22:43:43.610Z,123.13
2018-05-13T22:46:11.103Z,127.83
2018-05-13T22:48:38.642Z,118.27
2018-05-13T22:51:06.142Z,113.83
2018-05-13T22:53:33.637Z,125.37
2018-05-13T22:56:01.146Z,134.60
2018-05-13T22:58:28.709Z,122.33
2018-05-13T23:00:56.217Z,122.37
2018-05-13T23:03:23.718Z,130.03
2018-05-13T23:05:51.963Z,125.37
2018-05-13T23:08:19.529Z,128.97
2018-05-13T23:10:47.005Z,126.93
2018-05-13T23:13:14.498Z,140.30
2018-05-13T23:15:42.007Z,123.33
2018-05-13T23:18:09.510Z,130.90
2018-05-13T23:20:36.998Z,135.60
2018-05-13T23:23:04.495Z,128.73
2018-05-13T23:25:32.293Z,128.60
2018-05-13T23:27:59.940Z,135.30
2018-05-13T23:30:27.408Z,132.77
2018-05-13T23:32:54.930Z,149.13
2018-05-13T23:35:22.482Z,133.63
2018-05-13T23:37:51.064Z,123.47
2018-05-13T23:40:18.619Z,134.07
2018-05-13T23:42:46.101Z,135.43
2018-05-13T23:45:13.639Z,121.57
2018-05-13T23:47:41.141Z,138.90
2018-05-13T23:50:08.651Z,142.90
2018-05-13T23:52:36.119Z,150.40
2018-05-13T23:55:04.561Z,141.03
2018-05-13T23:57:32.074Z,144.10
2018-05-13T23:59:59.550Z,129.00
